sensor_id;sensor_type;location;lat;lon;timestamp;temperature;humidity
25616;DHT22;13482;48.234;13.006;2023-10-13T00:02:00;19.70;65.30
25616;DHT22;13482;48.234;13.006;2023-10-13T00:04:31;19.70;65.30
25616;DHT22;13482;48.234;13.006;2023-10-13T00:07:05;19.70;65.30
25616;DHT22;13482;48.234;13.006;2023-10-13T00:09:36;19.70;65.30
25616;DHT22;13482;48.234;13.006;2023-10-13T00:12:05;19.70;65.30
25616;DHT22;13482;48.234;13.006;2023-10-13T00:14:41;19.70;65.30
25616;DHT22;13482;48.234;13.006;2023-10-13T00:17:09;19.70;65.30
25616;DHT22;13482;48.234;13.006;2023-10-13T00:19:47;19.60;65.40
25616;DHT22;13482;48.234;13.006;2023-10-13T00:22:20;19.60;65.40
25616;DHT22;13482;48.234;13.006;2023-10-13T00:24:50;19.60;65.40
25616;DHT22;13482;48.234;13.006;2023-10-13T00:27:20;19.60;65.50
25616;DHT22;13482;48.234;13.006;2023-10-13T00:30:03;19.60;65.50
25616;DHT22;13482;48.234;13.006;2023-10-13T00:32:44;19.60;65.70
25616;DHT22;13482;48.234;13.006;2023-10-13T00:35:14;19.50;65.50
25616;DHT22;13482;48.234;13.006;2023-10-13T00:37:56;19.50;65.60
25616;DHT22;13482;48.234;13.006;2023-10-13T00:40:25;19.50;65.50
25616;DHT22;13482;48.234;13.006;2023-10-13T00:43:12;19.50;65.60
25616;DHT22;13482;48.234;13.006;2023-10-13T00:45:58;19.50;65.60
25616;DHT22;13482;48.234;13.006;2023-10-13T00:48:33;19.40;65.60
25616;DHT22;13482;48.234;13.006;2023-10-13T00:51:19;19.40;65.60
25616;DHT22;13482;48.234;13.006;2023-10-13T00:54:02;19.40;65.60
25616;DHT22;13482;48.234;13.006;2023-10-13T00:56:42;19.40;65.70
25616;DHT22;13482;48.234;13.006;2023-10-13T00:59:36;19.40;65.50
25616;DHT22;13482;48.234;13.006;2023-10-13T01:02:03;19.40;65.40
25616;DHT22;13482;48.234;13.006;2023-10-13T01:04:57;19.30;65.40
25616;DHT22;13482;48.234;13.006;2023-10-13T01:07:25;19.40;65.30
25616;DHT22;13482;48.234;13.006;2023-10-13T01:09:52;19.30;65.40
25616;DHT22;13482;48.234;13.006;2023-10-13T01:12:20;19.30;65.40
25616;DHT22;13482;48.234;13.006;2023-10-13T01:14:51;19.30;65.50
25616;DHT22;13482;48.234;13.006;2023-10-13T01:17:18;19.30;65.60
25616;DHT22;13482;48.234;13.006;2023-10-13T01:19:46;19.30;65.70
25616;DHT22;13482;48.234;13.006;2023-10-13T01:22:16;19.20;65.60
25616;DHT22;13482;48.234;13.006;2023-10-13T01:24:43;19.20;65.70
25616;DHT22;13482;48.234;13.006;2023-10-13T01:27:12;19.20;65.80
25616;DHT22;13482;48.234;13.006;2023-10-13T01:29:48;19.20;65.70
25616;DHT22;13482;48.234;13.006;2023-10-13T01:32:19;19.10;65.70
25616;DHT22;13482;48.234;13.006;2023-10-13T01:34:48;19.10;65.90
25616;DHT22;13482;48.234;13.006;2023-10-13T01:37:16;19.10;65.80
25616;DHT22;13482;48.234;13.006;2023-10-13T01:39:46;19.10;65.80
25616;DHT22;13482;48.234;13.006;2023-10-13T01:42:17;19.00;65.80
25616;DHT22;13482;48.234;13.006;2023-10-13T01:44:49;19.00;65.70
25616;DHT22;13482;48.234;13.006;2023-10-13T01:47:17;19.00;65.70
25616;DHT22;13482;48.234;13.006;2023-10-13T01:49:44;19.00;65.70
25616;DHT22;13482;48.234;13.006;2023-10-13T01:52:17;18.90;65.70
25616;DHT22;13482;48.234;13.006;2023-10-13T01:54:49;18.90;65.80
25616;DHT22;13482;48.234;13.006;2023-10-13T01:57:17;18.90;65.90
25616;DHT22;13482;48.234;13.006;2023-10-13T01:59:47;18.80;65.90
25616;DHT22;13482;48.234;13.006;2023-10-13T02:02:16;18.80;66.00
25616;DHT22;13482;48.234;13.006;2023-10-13T02:04:57;18.80;66.00
25616;DHT22;13482;48.234;13.006;2023-10-13T02:07:28;18.70;65.90
25616;DHT22;13482;48.234;13.006;2023-10-13T02:10:02;18.70;65.90
25616;DHT22;13482;48.234;13.006;2023-10-13T02:12:33;18.70;65.90
25616;DHT22;13482;48.234;13.006;2023-10-13T02:15:11;18.70;65.80
25616;DHT22;13482;48.234;13.006;2023-10-13T02:17:40;18.60;65.80
25616;DHT22;13482;48.234;13.006;2023-10-13T02:20:10;18.60;65.70
25616;DHT22;13482;48.234;13.006;2023-10-13T02:22:43;18.60;65.90
25616;DHT22;13482;48.234;13.006;2023-10-13T02:25:19;18.60;65.90
25616;DHT22;13482;48.234;13.006;2023-10-13T02:28:03;18.50;66.00
25616;DHT22;13482;48.234;13.006;2023-10-13T02:30:43;18.50;66.00
25616;DHT22;13482;48.234;13.006;2023-10-13T02:33:17;18.50;66.20
25616;DHT22;13482;48.234;13.006;2023-10-13T02:36:02;18.50;66.20
25616;DHT22;13482;48.234;13.006;2023-10-13T02:38:33;18.50;66.40
25616;DHT22;13482;48.234;13.006;2023-10-13T02:41:04;18.50;66.30
25616;DHT22;13482;48.234;13.006;2023-10-13T02:43:38;18.40;66.30
25616;DHT22;13482;48.234;13.006;2023-10-13T02:46:07;18.40;66.30
25616;DHT22;13482;48.234;13.006;2023-10-13T02:48:34;18.40;66.40
25616;DHT22;13482;48.234;13.006;2023-10-13T02:51:09;18.30;66.40
25616;DHT22;13482;48.234;13.006;2023-10-13T02:53:45;18.30;66.50
25616;DHT22;13482;48.234;13.006;2023-10-13T02:56:17;18.30;66.50
25616;DHT22;13482;48.234;13.006;2023-10-13T02:58:49;18.30;66.60
25616;DHT22;13482;48.234;13.006;2023-10-13T03:01:24;18.30;66.60
25616;DHT22;13482;48.234;13.006;2023-10-13T03:03:56;18.20;66.60
25616;DHT22;13482;48.234;13.006;2023-10-13T03:06:26;18.20;66.50
25616;DHT22;13482;48.234;13.006;2023-10-13T03:09:18;18.20;66.70
25616;DHT22;13482;48.234;13.006;2023-10-13T03:11:50;18.10;66.80
25616;DHT22;13482;48.234;13.006;2023-10-13T03:14:20;18.10;66.80
25616;DHT22;13482;48.234;13.006;2023-10-13T03:17:06;18.10;66.90
25616;DHT22;13482;48.234;13.006;2023-10-13T03:19:45;18.10;66.80
25616;DHT22;13482;48.234;13.006;2023-10-13T03:22:18;18.10;66.80
25616;DHT22;13482;48.234;13.006;2023-10-13T03:24:46;18.00;66.60
25616;DHT22;13482;48.234;13.006;2023-10-13T03:27:16;18.00;66.60
25616;DHT22;13482;48.234;13.006;2023-10-13T03:29:46;18.00;66.50
25616;DHT22;13482;48.234;13.006;2023-10-13T03:32:14;17.90;66.50
25616;DHT22;13482;48.234;13.006;2023-10-13T03:34:43;17.90;66.60
25616;DHT22;13482;48.234;13.006;2023-10-13T03:37:23;17.90;66.60
25616;DHT22;13482;48.234;13.006;2023-10-13T03:40:09;17.80;66.60
25616;DHT22;13482;48.234;13.006;2023-10-13T03:42:58;17.80;66.40
25616;DHT22;13482;48.234;13.006;2023-10-13T03:45:44;17.80;66.40
25616;DHT22;13482;48.234;13.006;2023-10-13T03:48:16;17.70;66.40
25616;DHT22;13482;48.234;13.006;2023-10-13T03:50:54;17.70;66.60
25616;DHT22;13482;48.234;13.006;2023-10-13T03:53:31;17.60;66.80
25616;DHT22;13482;48.234;13.006;2023-10-13T03:56:03;17.60;66.80
25616;DHT22;13482;48.234;13.006;2023-10-13T03:58:36;17.60;67.20
25616;DHT22;13482;48.234;13.006;2023-10-13T04:01:13;17.60;66.60
25616;DHT22;13482;48.234;13.006;2023-10-13T04:03:45;17.50;66.70
25616;DHT22;13482;48.234;13.006;2023-10-13T04:06:33;17.50;66.60
25616;DHT22;13482;48.234;13.006;2023-10-13T04:12:05;17.40;66.30
25616;DHT22;13482;48.234;13.006;2023-10-13T04:14:43;17.40;66.20
25616;DHT22;13482;48.234;13.006;2023-10-13T04:17:29;17.30;66.40
25616;DHT22;13482;48.234;13.006;2023-10-13T04:20:01;17.30;66.40
25616;DHT22;13482;48.234;13.006;2023-10-13T04:22:42;17.20;66.50
25616;DHT22;13482;48.234;13.006;2023-10-13T04:25:23;17.20;66.70
25616;DHT22;13482;48.234;13.006;2023-10-13T04:28:12;17.20;66.30
25616;DHT22;13482;48.234;13.006;2023-10-13T04:30:45;17.10;66.40
25616;DHT22;13482;48.234;13.006;2023-10-13T04:33:31;17.10;66.60
25616;DHT22;13482;48.234;13.006;2023-10-13T04:36:13;17.10;66.80
25616;DHT22;13482;48.234;13.006;2023-10-13T04:38:44;17.00;67.30
25616;DHT22;13482;48.234;13.006;2023-10-13T04:44:12;16.90;67.10
25616;DHT22;13482;48.234;13.006;2023-10-13T04:47:00;16.90;67.10
25616;DHT22;13482;48.234;13.006;2023-10-13T04:49:31;16.80;67.10
25616;DHT22;13482;48.234;13.006;2023-10-13T04:52:17;16.80;67.30
25616;DHT22;13482;48.234;13.006;2023-10-13T04:55:12;16.80;67.40
25616;DHT22;13482;48.234;13.006;2023-10-13T04:57:59;16.70;67.30
25616;DHT22;13482;48.234;13.006;2023-10-13T05:00:42;16.70;67.20
25616;DHT22;13482;48.234;13.006;2023-10-13T05:03:12;16.60;67.20
25616;DHT22;13482;48.234;13.006;2023-10-13T05:05:58;16.60;67.20
25616;DHT22;13482;48.234;13.006;2023-10-13T05:08:57;16.60;67.10
25616;DHT22;13482;48.234;13.006;2023-10-13T05:11:40;16.50;67.20
25616;DHT22;13482;48.234;13.006;2023-10-13T05:14:26;16.50;67.20
25616;DHT22;13482;48.234;13.006;2023-10-13T05:17:12;16.50;67.20
25616;DHT22;13482;48.234;13.006;2023-10-13T05:19:59;16.40;67.10
25616;DHT22;13482;48.234;13.006;2023-10-13T05:22:45;16.40;67.20
25616;DHT22;13482;48.234;13.006;2023-10-13T05:25:35;16.30;67.30
25616;DHT22;13482;48.234;13.006;2023-10-13T05:28:21;16.30;67.50
25616;DHT22;13482;48.234;13.006;2023-10-13T05:31:08;16.20;67.50
25616;DHT22;13482;48.234;13.006;2023-10-13T05:33:54;16.20;67.50
25616;DHT22;13482;48.234;13.006;2023-10-13T05:36:40;16.10;67.40
25616;DHT22;13482;48.234;13.006;2023-10-13T05:39:43;16.10;67.40
25616;DHT22;13482;48.234;13.006;2023-10-13T05:42:29;16.10;67.40
25616;DHT22;13482;48.234;13.006;2023-10-13T05:45:14;16.00;67.50
25616;DHT22;13482;48.234;13.006;2023-10-13T05:47:45;16.00;67.50
25616;DHT22;13482;48.234;13.006;2023-10-13T05:50:13;15.90;67.50
25616;DHT22;13482;48.234;13.006;2023-10-13T05:52:50;15.90;67.50
25616;DHT22;13482;48.234;13.006;2023-10-13T05:55:30;15.90;67.50
25616;DHT22;13482;48.234;13.006;2023-10-13T05:58:16;15.90;67.50
25616;DHT22;13482;48.234;13.006;2023-10-13T06:01:02;15.90;67.50
25616;DHT22;13482;48.234;13.006;2023-10-13T06:03:48;15.90;67.50
25616;DHT22;13482;48.234;13.006;2023-10-13T06:06:34;15.80;67.50
25616;DHT22;13482;48.234;13.006;2023-10-13T06:09:20;15.80;67.80
25616;DHT22;13482;48.234;13.006;2023-10-13T06:12:05;15.80;67.90
25616;DHT22;13482;48.234;13.006;2023-10-13T06:14:51;15.80;68.00
25616;DHT22;13482;48.234;13.006;2023-10-13T06:17:37;15.80;67.90
25616;DHT22;13482;48.234;13.006;2023-10-13T06:20:24;15.80;68.00
25616;DHT22;13482;48.234;13.006;2023-10-13T06:23:09;15.90;68.30
25616;DHT22;13482;48.234;13.006;2023-10-13T06:25:57;15.90;68.50
25616;DHT22;13482;48.234;13.006;2023-10-13T06:28:44;15.90;68.60
25616;DHT22;13482;48.234;13.006;2023-10-13T06:31:13;16.00;68.70
25616;DHT22;13482;48.234;13.006;2023-10-13T06:33:50;16.00;68.90
25616;DHT22;13482;48.234;13.006;2023-10-13T06:36:18;16.10;69.10
25616;DHT22;13482;48.234;13.006;2023-10-13T06:38:46;16.10;69.20
25616;DHT22;13482;48.234;13.006;2023-10-13T06:41:22;16.20;69.30
25616;DHT22;13482;48.234;13.006;2023-10-13T06:43:59;16.20;69.30
25616;DHT22;13482;48.234;13.006;2023-10-13T06:46:27;16.30;69.50
25616;DHT22;13482;48.234;13.006;2023-10-13T06:48:56;16.40;69.60
25616;DHT22;13482;48.234;13.006;2023-10-13T06:51:27;16.40;69.80
25616;DHT22;13482;48.234;13.006;2023-10-13T06:53:58;16.50;69.70
25616;DHT22;13482;48.234;13.006;2023-10-13T06:56:27;16.60;69.80
25616;DHT22;13482;48.234;13.006;2023-10-13T06:58:56;16.70;70.00
25616;DHT22;13482;48.234;13.006;2023-10-13T07:01:27;16.90;70.30
25616;DHT22;13482;48.234;13.006;2023-10-13T07:03:56;17.00;70.60
25616;DHT22;13482;48.234;13.006;2023-10-13T07:06:28;17.10;70.70
25616;DHT22;13482;48.234;13.006;2023-10-13T07:08:58;17.30;70.70
25616;DHT22;13482;48.234;13.006;2023-10-13T07:11:31;17.40;70.90
25616;DHT22;13482;48.234;13.006;2023-10-13T07:14:05;17.60;70.90
25616;DHT22;13482;48.234;13.006;2023-10-13T07:16:55;17.80;70.90
25616;DHT22;13482;48.234;13.006;2023-10-13T07:19:32;18.00;71.00
25616;DHT22;13482;48.234;13.006;2023-10-13T07:22:03;18.20;70.50
25616;DHT22;13482;48.234;13.006;2023-10-13T07:24:47;18.40;70.40
25616;DHT22;13482;48.234;13.006;2023-10-13T07:27:22;18.50;70.20
25616;DHT22;13482;48.234;13.006;2023-10-13T07:29:53;18.70;70.10
25616;DHT22;13482;48.234;13.006;2023-10-13T07:32:41;18.90;70.10
25616;DHT22;13482;48.234;13.006;2023-10-13T07:35:18;19.10;69.90
25616;DHT22;13482;48.234;13.006;2023-10-13T07:37:53;19.20;69.70
25616;DHT22;13482;48.234;13.006;2023-10-13T07:40:22;19.30;69.50
25616;DHT22;13482;48.234;13.006;2023-10-13T07:42:53;19.50;69.50
25616;DHT22;13482;48.234;13.006;2023-10-13T07:45:40;19.60;69.30
25616;DHT22;13482;48.234;13.006;2023-10-13T07:48:10;19.80;69.10
25616;DHT22;13482;48.234;13.006;2023-10-13T07:50:58;19.90;68.90
25616;DHT22;13482;48.234;13.006;2023-10-13T07:53:31;20.10;68.70
25616;DHT22;13482;48.234;13.006;2023-10-13T07:56:02;20.20;68.70
25616;DHT22;13482;48.234;13.006;2023-10-13T07:58:32;20.40;68.70
25616;DHT22;13482;48.234;13.006;2023-10-13T08:01:00;20.50;68.60
25616;DHT22;13482;48.234;13.006;2023-10-13T08:03:37;20.70;68.30
25616;DHT22;13482;48.234;13.006;2023-10-13T08:06:15;20.90;68.20
25616;DHT22;13482;48.234;13.006;2023-10-13T08:08:47;21.10;67.90
25616;DHT22;13482;48.234;13.006;2023-10-13T08:11:21;21.20;67.70
25616;DHT22;13482;48.234;13.006;2023-10-13T08:13:56;21.40;67.60
25616;DHT22;13482;48.234;13.006;2023-10-13T08:16:56;21.50;67.10
25616;DHT22;13482;48.234;13.006;2023-10-13T08:19:28;21.70;66.90
25616;DHT22;13482;48.234;13.006;2023-10-13T08:22:16;21.80;66.60
25616;DHT22;13482;48.234;13.006;2023-10-13T08:24:44;21.90;66.10
25616;DHT22;13482;48.234;13.006;2023-10-13T08:27:13;22.00;66.00
25616;DHT22;13482;48.234;13.006;2023-10-13T08:29:43;22.10;65.90
25616;DHT22;13482;48.234;13.006;2023-10-13T08:32:28;22.20;65.70
25616;DHT22;13482;48.234;13.006;2023-10-13T08:34:58;22.40;65.20
25616;DHT22;13482;48.234;13.006;2023-10-13T08:37:27;22.50;65.30
25616;DHT22;13482;48.234;13.006;2023-10-13T08:39:58;22.50;65.20
25616;DHT22;13482;48.234;13.006;2023-10-13T08:42:46;22.60;65.00
25616;DHT22;13482;48.234;13.006;2023-10-13T08:45:14;22.80;65.10
25616;DHT22;13482;48.234;13.006;2023-10-13T08:47:58;22.90;65.60
25616;DHT22;13482;48.234;13.006;2023-10-13T08:50:49;23.00;65.30
25616;DHT22;13482;48.234;13.006;2023-10-13T08:53:19;23.20;65.10
25616;DHT22;13482;48.234;13.006;2023-10-13T08:56:02;23.30;64.90
25616;DHT22;13482;48.234;13.006;2023-10-13T08:58:38;23.50;65.20
25616;DHT22;13482;48.234;13.006;2023-10-13T09:01:35;23.70;65.40
25616;DHT22;13482;48.234;13.006;2023-10-13T09:04:17;23.90;65.40
25616;DHT22;13482;48.234;13.006;2023-10-13T09:09:45;24.30;64.90
25616;DHT22;13482;48.234;13.006;2023-10-13T09:12:21;24.50;63.80
25616;DHT22;13482;48.234;13.006;2023-10-13T09:15:00;24.70;64.00
25616;DHT22;13482;48.234;13.006;2023-10-13T09:17:49;24.80;63.60
25616;DHT22;13482;48.234;13.006;2023-10-13T09:20:28;25.00;63.30
25616;DHT22;13482;48.234;13.006;2023-10-13T09:23:15;25.10;63.00
25616;DHT22;13482;48.234;13.006;2023-10-13T09:25:53;25.30;63.00
25616;DHT22;13482;48.234;13.006;2023-10-13T09:28:21;25.40;63.20
25616;DHT22;13482;48.234;13.006;2023-10-13T09:30:54;25.50;63.20
25616;DHT22;13482;48.234;13.006;2023-10-13T09:33:28;25.70;63.50
25616;DHT22;13482;48.234;13.006;2023-10-13T09:36:06;25.90;63.60
25616;DHT22;13482;48.234;13.006;2023-10-13T09:38:35;26.20;63.10
25616;DHT22;13482;48.234;13.006;2023-10-13T09:41:08;26.40;62.70
25616;DHT22;13482;48.234;13.006;2023-10-13T09:43:46;26.60;63.30
25616;DHT22;13482;48.234;13.006;2023-10-13T09:46:22;26.80;63.40
25616;DHT22;13482;48.234;13.006;2023-10-13T09:48:51;27.10;62.20
25616;DHT22;13482;48.234;13.006;2023-10-13T09:51:34;27.30;62.70
25616;DHT22;13482;48.234;13.006;2023-10-13T09:54:03;27.50;62.80
25616;DHT22;13482;48.234;13.006;2023-10-13T09:57:06;27.70;61.80
25616;DHT22;13482;48.234;13.006;2023-10-13T09:59:45;28.00;61.10
25616;DHT22;13482;48.234;13.006;2023-10-13T10:02:20;28.10;61.30
25616;DHT22;13482;48.234;13.006;2023-10-13T10:04:56;28.30;60.80
25616;DHT22;13482;48.234;13.006;2023-10-13T10:07:40;28.50;61.10
25616;DHT22;13482;48.234;13.006;2023-10-13T10:10:08;28.60;61.30
25616;DHT22;13482;48.234;13.006;2023-10-13T10:13:04;28.80;60.60
25616;DHT22;13482;48.234;13.006;2023-10-13T10:15:43;29.10;59.10
25616;DHT22;13482;48.234;13.006;2023-10-13T10:18:23;29.30;59.40
25616;DHT22;13482;48.234;13.006;2023-10-13T10:21:07;29.50;58.20
25616;DHT22;13482;48.234;13.006;2023-10-13T10:23:35;29.60;58.60
25616;DHT22;13482;48.234;13.006;2023-10-13T10:26:15;29.80;59.10
25616;DHT22;13482;48.234;13.006;2023-10-13T10:28:49;29.90;57.90
25616;DHT22;13482;48.234;13.006;2023-10-13T10:31:16;30.10;57.40
25616;DHT22;13482;48.234;13.006;2023-10-13T10:33:47;30.20;56.70
25616;DHT22;13482;48.234;13.006;2023-10-13T10:36:29;30.30;56.30
25616;DHT22;13482;48.234;13.006;2023-10-13T10:38:59;30.40;54.20
25616;DHT22;13482;48.234;13.006;2023-10-13T10:41:28;30.40;55.30
25616;DHT22;13482;48.234;13.006;2023-10-13T10:44:15;30.40;54.90
25616;DHT22;13482;48.234;13.006;2023-10-13T10:46:44;30.40;54.50
25616;DHT22;13482;48.234;13.006;2023-10-13T10:49:28;30.40;54.80
25616;DHT22;13482;48.234;13.006;2023-10-13T10:51:59;30.50;55.00
25616;DHT22;13482;48.234;13.006;2023-10-13T10:54:32;30.50;54.60
25616;DHT22;13482;48.234;13.006;2023-10-13T10:57:01;30.60;55.00
25616;DHT22;13482;48.234;13.006;2023-10-13T11:00:00;30.60;54.10
25616;DHT22;13482;48.234;13.006;2023-10-13T11:02:41;30.70;54.40
25616;DHT22;13482;48.234;13.006;2023-10-13T11:05:09;30.80;54.50
25616;DHT22;13482;48.234;13.006;2023-10-13T11:07:37;30.80;54.70
25616;DHT22;13482;48.234;13.006;2023-10-13T11:10:26;30.90;54.50
25616;DHT22;13482;48.234;13.006;2023-10-13T11:13:42;31.00;52.30
25616;DHT22;13482;48.234;13.006;2023-10-13T11:16:33;31.10;52.80
25616;DHT22;13482;48.234;13.006;2023-10-13T11:19:03;31.10;51.40
25616;DHT22;13482;48.234;13.006;2023-10-13T11:21:32;31.10;53.30
25616;DHT22;13482;48.234;13.006;2023-10-13T11:24:00;31.20;53.30
25616;DHT22;13482;48.234;13.006;2023-10-13T11:26:36;31.30;52.20
25616;DHT22;13482;48.234;13.006;2023-10-13T11:29:33;31.30;51.80
25616;DHT22;13482;48.234;13.006;2023-10-13T11:32:01;31.40;49.80
25616;DHT22;13482;48.234;13.006;2023-10-13T11:34:30;31.40;51.10
25616;DHT22;13482;48.234;13.006;2023-10-13T11:37:07;31.50;51.10
25616;DHT22;13482;48.234;13.006;2023-10-13T11:39:53;31.60;51.00
25616;DHT22;13482;48.234;13.006;2023-10-13T11:42:20;31.70;51.30
25616;DHT22;13482;48.234;13.006;2023-10-13T11:44:48;31.80;50.90
25616;DHT22;13482;48.234;13.006;2023-10-13T11:47:28;31.90;50.30
25616;DHT22;13482;48.234;13.006;2023-10-13T11:50:15;31.90;50.60
25616;DHT22;13482;48.234;13.006;2023-10-13T11:53:00;32.00;50.30
25616;DHT22;13482;48.234;13.006;2023-10-13T11:55:27;32.00;49.90
25616;DHT22;13482;48.234;13.006;2023-10-13T11:57:55;32.10;49.90
25616;DHT22;13482;48.234;13.006;2023-10-13T12:00:27;32.10;49.50
25616;DHT22;13482;48.234;13.006;2023-10-13T12:03:20;32.20;49.10
25616;DHT22;13482;48.234;13.006;2023-10-13T12:06:09;32.20;48.80
25616;DHT22;13482;48.234;13.006;2023-10-13T12:08:55;32.30;48.50
25616;DHT22;13482;48.234;13.006;2023-10-13T12:11:25;32.30;48.40
25616;DHT22;13482;48.234;13.006;2023-10-13T12:13:59;32.40;48.80
25616;DHT22;13482;48.234;13.006;2023-10-13T12:16:38;32.40;48.60
25616;DHT22;13482;48.234;13.006;2023-10-13T12:19:06;32.50;48.10
25616;DHT22;13482;48.234;13.006;2023-10-13T12:21:38;32.60;47.70
25616;DHT22;13482;48.234;13.006;2023-10-13T12:24:06;32.70;47.50
25616;DHT22;13482;48.234;13.006;2023-10-13T12:26:39;32.70;47.40
25616;DHT22;13482;48.234;13.006;2023-10-13T12:29:08;32.80;47.60
25616;DHT22;13482;48.234;13.006;2023-10-13T12:31:46;32.90;47.70
25616;DHT22;13482;48.234;13.006;2023-10-13T12:34:19;33.00;47.50
25616;DHT22;13482;48.234;13.006;2023-10-13T12:37:06;33.10;47.30
25616;DHT22;13482;48.234;13.006;2023-10-13T12:39:52;33.20;47.60
25616;DHT22;13482;48.234;13.006;2023-10-13T12:42:38;33.40;47.30
25616;DHT22;13482;48.234;13.006;2023-10-13T12:45:25;33.50;47.10
25616;DHT22;13482;48.234;13.006;2023-10-13T12:48:11;33.50;46.60
25616;DHT22;13482;48.234;13.006;2023-10-13T12:51:01;33.60;46.40
25616;DHT22;13482;48.234;13.006;2023-10-13T12:53:51;33.70;46.70
25616;DHT22;13482;48.234;13.006;2023-10-13T12:56:20;33.80;47.20
25616;DHT22;13482;48.234;13.006;2023-10-13T12:58:55;33.80;47.30
25616;DHT22;13482;48.234;13.006;2023-10-13T13:01:24;33.90;47.30
25616;DHT22;13482;48.234;13.006;2023-10-13T13:03:59;34.00;46.70
25616;DHT22;13482;48.234;13.006;2023-10-13T13:06:31;34.10;46.80
25616;DHT22;13482;48.234;13.006;2023-10-13T13:09:00;34.20;46.70
25616;DHT22;13482;48.234;13.006;2023-10-13T13:11:27;34.30;46.30
25616;DHT22;13482;48.234;13.006;2023-10-13T13:13:58;34.30;46.20
25616;DHT22;13482;48.234;13.006;2023-10-13T13:16:26;34.40;46.60
25616;DHT22;13482;48.234;13.006;2023-10-13T13:18:57;34.40;46.50
25616;DHT22;13482;48.234;13.006;2023-10-13T13:21:25;34.50;46.30
25616;DHT22;13482;48.234;13.006;2023-10-13T13:23:54;34.60;46.20
25616;DHT22;13482;48.234;13.006;2023-10-13T13:26:22;34.70;46.10
25616;DHT22;13482;48.234;13.006;2023-10-13T13:28:51;34.80;46.10
25616;DHT22;13482;48.234;13.006;2023-10-13T13:31:19;34.90;46.40
25616;DHT22;13482;48.234;13.006;2023-10-13T13:33:53;35.00;46.20
25616;DHT22;13482;48.234;13.006;2023-10-13T13:36:20;35.10;46.30
25616;DHT22;13482;48.234;13.006;2023-10-13T13:38:49;35.10;46.40
25616;DHT22;13482;48.234;13.006;2023-10-13T13:41:18;35.20;46.30
25616;DHT22;13482;48.234;13.006;2023-10-13T13:43:47;35.30;46.30
25616;DHT22;13482;48.234;13.006;2023-10-13T13:46:24;35.30;46.10
25616;DHT22;13482;48.234;13.006;2023-10-13T13:48:54;35.40;45.90
25616;DHT22;13482;48.234;13.006;2023-10-13T13:51:27;35.50;45.60
25616;DHT22;13482;48.234;13.006;2023-10-13T13:53:56;35.50;45.10
25616;DHT22;13482;48.234;13.006;2023-10-13T13:56:24;35.60;45.10
25616;DHT22;13482;48.234;13.006;2023-10-13T13:58:54;35.70;45.00
25616;DHT22;13482;48.234;13.006;2023-10-13T14:01:34;35.70;44.70
25616;DHT22;13482;48.234;13.006;2023-10-13T14:04:05;35.80;44.80
25616;DHT22;13482;48.234;13.006;2023-10-13T14:06:35;35.90;44.70
25616;DHT22;13482;48.234;13.006;2023-10-13T14:09:04;36.00;44.30
25616;DHT22;13482;48.234;13.006;2023-10-13T14:11:55;36.10;44.00
25616;DHT22;13482;48.234;13.006;2023-10-13T14:14:43;36.30;44.10
25616;DHT22;13482;48.234;13.006;2023-10-13T14:17:23;36.40;43.80
25616;DHT22;13482;48.234;13.006;2023-10-13T14:19:57;36.60;43.60
25616;DHT22;13482;48.234;13.006;2023-10-13T14:22:25;36.80;43.60
25616;DHT22;13482;48.234;13.006;2023-10-13T14:24:53;37.10;44.30
25616;DHT22;13482;48.234;13.006;2023-10-13T14:27:23;37.30;44.50
25616;DHT22;13482;48.234;13.006;2023-10-13T14:29:53;37.60;44.70
25616;DHT22;13482;48.234;13.006;2023-10-13T14:32:21;37.90;44.30
25616;DHT22;13482;48.234;13.006;2023-10-13T14:34:52;38.20;44.20
25616;DHT22;13482;48.234;13.006;2023-10-13T14:37:24;38.50;44.20
25616;DHT22;13482;48.234;13.006;2023-10-13T14:39:59;38.80;43.40
25616;DHT22;13482;48.234;13.006;2023-10-13T14:42:28;39.20;43.10
25616;DHT22;13482;48.234;13.006;2023-10-13T14:45:03;39.50;42.90
25616;DHT22;13482;48.234;13.006;2023-10-13T14:47:40;39.80;42.60
25616;DHT22;13482;48.234;13.006;2023-10-13T14:50:11;40.10;42.40
25616;DHT22;13482;48.234;13.006;2023-10-13T14:52:50;40.50;42.00
25616;DHT22;13482;48.234;13.006;2023-10-13T14:55:18;40.80;41.30
25616;DHT22;13482;48.234;13.006;2023-10-13T14:57:47;41.10;41.40
25616;DHT22;13482;48.234;13.006;2023-10-13T15:00:18;41.40;41.20
25616;DHT22;13482;48.234;13.006;2023-10-13T15:02:54;41.80;40.90
25616;DHT22;13482;48.234;13.006;2023-10-13T15:05:22;42.10;40.80
25616;DHT22;13482;48.234;13.006;2023-10-13T15:07:50;42.40;40.40
25616;DHT22;13482;48.234;13.006;2023-10-13T15:10:18;42.70;40.00
25616;DHT22;13482;48.234;13.006;2023-10-13T15:12:46;43.00;39.90
25616;DHT22;13482;48.234;13.006;2023-10-13T15:15:15;43.30;39.60
25616;DHT22;13482;48.234;13.006;2023-10-13T15:17:43;43.50;39.50
25616;DHT22;13482;48.234;13.006;2023-10-13T15:20:11;43.70;39.30
25616;DHT22;13482;48.234;13.006;2023-10-13T15:22:45;43.90;39.10
25616;DHT22;13482;48.234;13.006;2023-10-13T15:25:16;44.00;39.00
25616;DHT22;13482;48.234;13.006;2023-10-13T15:28:00;44.10;38.90
25616;DHT22;13482;48.234;13.006;2023-10-13T15:30:36;44.20;38.40
25616;DHT22;13482;48.234;13.006;2023-10-13T15:33:24;44.20;38.60
25616;DHT22;13482;48.234;13.006;2023-10-13T15:35:52;44.20;38.30
25616;DHT22;13482;48.234;13.006;2023-10-13T15:38:20;44.20;38.30
25616;DHT22;13482;48.234;13.006;2023-10-13T15:40:49;44.10;37.90
25616;DHT22;13482;48.234;13.006;2023-10-13T15:43:22;44.10;37.90
25616;DHT22;13482;48.234;13.006;2023-10-13T15:45:49;43.90;37.80
25616;DHT22;13482;48.234;13.006;2023-10-13T15:48:17;43.80;37.60
25616;DHT22;13482;48.234;13.006;2023-10-13T15:50:48;43.60;37.40
25616;DHT22;13482;48.234;13.006;2023-10-13T15:53:17;43.30;37.30
25616;DHT22;13482;48.234;13.006;2023-10-13T15:55:45;42.90;37.10
25616;DHT22;13482;48.234;13.006;2023-10-13T15:58:13;42.40;37.10
25616;DHT22;13482;48.234;13.006;2023-10-13T16:00:41;41.90;37.00
25616;DHT22;13482;48.234;13.006;2023-10-13T16:03:09;41.30;37.10
25616;DHT22;13482;48.234;13.006;2023-10-13T16:05:39;40.60;37.10
25616;DHT22;13482;48.234;13.006;2023-10-13T16:08:10;40.00;37.40
25616;DHT22;13482;48.234;13.006;2023-10-13T16:10:39;39.40;37.60
25616;DHT22;13482;48.234;13.006;2023-10-13T16:13:07;38.80;37.80
25616;DHT22;13482;48.234;13.006;2023-10-13T16:15:44;38.20;38.10
25616;DHT22;13482;48.234;13.006;2023-10-13T16:18:15;37.60;38.40